EST,Max TemperatureF,Mean TemperatureF,Min TemperatureF,Max Dew PointF,MeanDew PointF,Min DewpointF,Max Humidity, Mean Humidity, Min Humidity, Max Sea Level PressureIn, Mean Sea Level PressureIn, Min Sea Level PressureIn, Max VisibilityMiles, Mean VisibilityMiles, Min VisibilityMiles, Max Wind SpeedMPH, Mean Wind SpeedMPH, Max Gust SpeedMPH,PrecipitationIn, CloudCover, Events, WindDirDegrees
2012-11-1,54,45,36,19,6,-21,39,22,5,29.81,29.74,29.71,10,10,10,8,2,,0.00,7,,274
2012-11-2,56,44,32,24,-4,-47,55,20,4,29.99,29.86,29.80,10,10,7,17,4,26,0.00,3,,302
2012-11-3,52,46,39,-2,-21,-47,17,8,4,30.13,30.07,29.99,10,10,10,20,8,29,0.00,5,,310
2012-11-4,52,42,32,24,-8,-40,57,19,4,30.15,30.10,30.04,10,10,10,9,2,,0.00,4,,336
2012-11-5,58,40,29,31,15,-29,93,50,5,30.22,30.14,30.10,10,10,7,17,5,26,0.00,2,,338
2012-11-6,46,36,25,32,28,24,97,72,47,30.25,30.16,30.04,10,10,7,10,3,,0.00,2,,27
2012-11-7,45,42,38,32,30,25,73,63,49,30.03,29.96,29.92,10,10,10,15,8,18,0.00,7,,344
2012-11-8,57,48,40,30,19,13,61,35,18,30.12,30.01,29.94,10,10,10,24,12,31,0.00,1,,317
2012-11-9,59,45,31,38,33,29,96,67,40,30.27,30.22,30.12,10,10,10,20,6,26,0.00,0,,317
2012-11-10,66,48,30,43,38,30,99,70,32,30.42,30.35,30.27,10,9,3,5,1,,0.00,0,,101
2012-11-11,74,54,34,44,40,34,100,65,25,30.51,30.45,30.40,10,8,2,10,2,,0.00,0,,159
2012-11-12,73,58,44,61,53,44,99,74,54,30.46,30.33,30.18,10,10,4,14,3,18,0.00,2,Rain,167
2012-11-13,66,50,34,61,37,27,95,75,47,30.53,30.40,30.18,10,9,4,23,10,29,0.54,4,Rain,347
2012-11-14,48,38,29,30,28,26,96,70,47,30.59,30.53,30.48,10,10,10,13,6,20,0.00,0,,348
2012-11-15,50,40,29,37,34,29,97,77,59,30.48,30.40,30.35,10,10,10,7,4,,0.00,7,,348
2012-11-16,54,43,32,37,33,29,91,68,40,30.48,30.39,30.34,10,10,10,10,5,,0.00,2,,344
2012-11-17,55,42,31,33,30,25,91,65,33,30.63,30.58,30.49,10,10,10,12,6,17,0.00,0,,13
2012-11-18,55,45,35,41,38,32,95,73,57,30.64,30.58,30.53,10,10,7,14,7,17,0.00,3,,16
2012-11-19,54,48,41,42,40,37,86,71,61,30.52,30.40,30.26,10,10,10,12,6,17,0.00,8,,357
2012-11-20,54,46,37,43,40,35,99,81,64,30.26,30.19,30.13,10,9,4,7,3,,0.00,3,,328
2012-11-21,58,44,31,40,34,30,100,75,39,30.26,30.22,30.17,10,7,1,8,3,,0.00,0,,348
2012-11-22,60,44,28,35,30,27,99,71,31,30.31,30.26,30.20,10,9,5,8,3,,0.00,0,,355
2012-11-23,66,46,26,42,32,26,99,62,32,30.20,29.98,29.81,10,10,10,14,3,23,0.00,1,,223
2012-11-24,48,38,27,30,20,17,72,47,35,30.12,30.02,29.87,10,10,10,21,12,29,0.00,2,,312
2012-11-25,44,34,23,25,21,18,89,65,35,30.15,30.07,30.00,10,10,10,8,2,,0.00,1,,229
2012-11-26,57,42,27,34,27,22,89,62,30,30.25,30.18,30.04,10,10,10,8,1,,0.00,1,,82
2012-11-27,43,38,32,41,37,32,99,89,70,30.31,30.24,30.19,10,8,2,13,4,17,0.05,7,Rain,345
2012-11-28,49,38,26,35,29,24,95,70,42,30.43,30.34,30.29,10,10,5,15,4,16,0.00,3,,329
2012-11-29,51,36,20,29,24,19,96,71,35,30.51,30.44,30.39,10,10,10,9,2,,0.00,0,,217
2012-11-30,50,36,23,33,29,23,97,79,44,30.42,30.38,30.35,10,9,7,6,1,,0.00,0,,51